createdAt,value
2022-12-03T00:01:45.390Z,102109.47
2022-12-03T00:06:47.358Z,102119.94
2022-12-03T00:11:49.279Z,102124.88
2022-12-03T00:16:51.246Z,102110.06
2022-12-03T00:21:53.039Z,102135.94
2022-12-03T00:26:55.044Z,102129.22
2022-12-03T00:31:57.009Z,102139.81
2022-12-03T00:36:58.928Z,102119.63
2022-12-03T00:42:00.816Z,102125.59
2022-12-03T00:47:02.844Z,102124.84
2022-12-03T00:52:04.828Z,102125.31
2022-12-03T00:57:06.675Z,102122.91
2022-12-03T01:02:08.763Z,102134.56
2022-12-03T01:07:10.453Z,102130.97
2022-12-03T01:12:12.388Z,102131.13
2022-12-03T01:17:14.285Z,102138.75
2022-12-03T01:22:16.263Z,102138.72
2022-12-03T01:27:18.236Z,102141.53
2022-12-03T01:32:20.387Z,102143.41
2022-12-03T01:37:24.336Z,102147.53
2022-12-03T01:42:28.431Z,102159.28
2022-12-03T01:47:36.972Z,102146.19
2022-12-03T01:52:38.774Z,102141.53
2022-12-03T01:57:48.604Z,102141.97
2022-12-03T02:02:55.769Z,102152.97
2022-12-03T02:07:57.880Z,102161.22
2022-12-03T02:13:04.982Z,102159.75
2022-12-03T02:18:08.274Z,102167.75
2022-12-03T02:23:28.669Z,102159.44
2022-12-03T02:28:30.576Z,102153.47
2022-12-03T02:33:32.573Z,102160.31
2022-12-03T02:38:34.401Z,102162.09
2022-12-03T02:43:36.684Z,102165.81
2022-12-03T02:48:39.119Z,102162.22
2022-12-03T02:53:42.938Z,102167.94
2022-12-03T02:58:45.327Z,102173.13
2022-12-03T03:03:47.625Z,102161.44
2022-12-03T03:08:49.513Z,102175.88
2022-12-03T03:13:51.578Z,102181.44
2022-12-03T03:18:53.194Z,102173.06
2022-12-03T03:23:55.103Z,102188.94
2022-12-03T03:28:56.950Z,102179.94
2022-12-03T03:33:58.969Z,102180.84
2022-12-03T03:39:00.615Z,102190.22
2022-12-03T03:44:03.787Z,102195.22
2022-12-03T03:49:05.764Z,102195.28
2022-12-03T03:54:07.548Z,102192.50
2022-12-03T03:59:09.518Z,102190.47
2022-12-03T04:04:18.777Z,102194.16
2022-12-03T04:09:20.664Z,102196.69
2022-12-03T04:14:22.740Z,102188.69
2022-12-03T04:19:24.334Z,102197.44
2022-12-03T04:24:26.217Z,102185.44
2022-12-03T04:29:28.018Z,102203.88
2022-12-03T04:34:30.152Z,102206.63
2022-12-03T04:39:31.977Z,102211.63
2022-12-03T04:44:34.145Z,102208.75
2022-12-03T04:49:37.265Z,102219.47
2022-12-03T04:54:39.471Z,102225.44
2022-12-03T04:59:41.269Z,102228.66
2022-12-03T05:04:43.222Z,102229.72
2022-12-03T05:09:45.810Z,102230.50
2022-12-03T05:14:47.891Z,102233.94
2022-12-03T05:19:49.547Z,102250.81
2022-12-03T05:24:51.800Z,102248.03
2022-12-03T05:29:54.056Z,102259.94
2022-12-03T05:34:56.684Z,102274.44
2022-12-03T05:39:58.823Z,102283.59
2022-12-03T05:45:00.680Z,102288.31
2022-12-03T05:50:02.594Z,102270.00
2022-12-03T05:55:05.606Z,102287.03
2022-12-03T06:00:09.860Z,102287.03
2022-12-03T06:05:12.186Z,102279.03
2022-12-03T06:10:15.283Z,102285.56
2022-12-03T06:15:17.395Z,102278.53
2022-12-03T06:20:19.591Z,102284.84
2022-12-03T06:25:21.507Z,102281.72
2022-12-03T06:30:23.329Z,102275.34
2022-12-03T06:35:25.199Z,102270.47
2022-12-03T06:40:27.088Z,102270.56
2022-12-03T06:45:29.113Z,102281.66
2022-12-03T06:50:31.141Z,102273.81
2022-12-03T06:55:33.992Z,102272.25
2022-12-03T07:00:35.885Z,102272.44
2022-12-03T07:05:37.837Z,102273.84
2022-12-03T07:10:39.704Z,102262.84
2022-12-03T07:15:41.729Z,102268.88
2022-12-03T07:20:43.593Z,102278.50
2022-12-03T07:25:45.472Z,102277.34
2022-12-03T07:30:47.510Z,102274.56
2022-12-03T07:35:49.337Z,102271.91
2022-12-03T07:40:52.519Z,102277.56
2022-12-03T07:45:54.415Z,102271.88
2022-12-03T07:50:56.256Z,102277.13
2022-12-03T07:55:58.229Z,102269.31
2022-12-03T08:01:00.186Z,102262.56
2022-12-03T08:06:02.227Z,102260.13
2022-12-03T08:11:05.555Z,102260.22
2022-12-03T08:16:19.924Z,102265.13
2022-12-03T08:21:23.146Z,102256.81
2022-12-03T08:26:27.995Z,102261.00
2022-12-03T08:31:33.617Z,102262.91
2022-12-03T08:36:36.821Z,102252.31
2022-12-03T08:41:38.939Z,102254.19
2022-12-03T08:46:40.781Z,102254.59
2022-12-03T08:51:42.563Z,102249.56
2022-12-03T08:56:44.428Z,102252.19
2022-12-03T09:01:46.870Z,102254.97
2022-12-03T09:06:49.505Z,102254.19
2022-12-03T09:11:52.080Z,102248.41
2022-12-03T09:16:54.107Z,102249.03
2022-12-03T09:21:55.963Z,102243.00
2022-12-03T09:26:57.888Z,102249.22
2022-12-03T09:31:59.763Z,102250.78
2022-12-03T09:37:01.837Z,102247.94
2022-12-03T09:42:03.774Z,102240.31
2022-12-03T09:47:05.724Z,102248.16
2022-12-03T09:52:07.800Z,102243.84
2022-12-03T09:57:10.114Z,102240.19
2022-12-03T10:02:21.425Z,102241.81
2022-12-03T10:07:24.484Z,102246.03
2022-12-03T10:12:26.343Z,102243.75
2022-12-03T10:17:28.443Z,102245.31
2022-12-03T10:22:30.499Z,102247.53
2022-12-03T10:27:32.554Z,102243.72
2022-12-03T10:32:47.816Z,102240.28
2022-12-03T10:38:03.563Z,102248.16
2022-12-03T10:43:18.480Z,102247.91
2022-12-03T10:48:21.862Z,102251.13
2022-12-03T10:53:26.998Z,102229.38
2022-12-03T10:58:31.365Z,102234.81
2022-12-03T11:03:36.529Z,102238.22
2022-12-03T11:08:38.685Z,102251.28
2022-12-03T11:13:40.526Z,102247.31
2022-12-03T11:18:42.637Z,102249.63
2022-12-03T11:23:44.644Z,102236.03
2022-12-03T11:28:46.574Z,102247.97
2022-12-03T11:33:48.408Z,102245.25
2022-12-03T11:38:53.578Z,102250.41
2022-12-03T11:43:55.622Z,102245.53
2022-12-03T11:48:58.986Z,102245.16
2022-12-03T11:54:00.832Z,102238.75
2022-12-03T11:59:03.970Z,102239.16
2022-12-03T12:04:06.310Z,102246.06
2022-12-03T12:09:08.542Z,102245.41
2022-12-03T12:14:11.956Z,102246.81
2022-12-03T12:19:35.673Z,102243.13
2022-12-03T12:24:40.622Z,102243.63
2022-12-03T12:29:43.574Z,102242.09
2022-12-03T12:34:49.322Z,102242.88
2022-12-03T12:39:53.483Z,102245.69
2022-12-03T12:45:00.100Z,102244.66
2022-12-03T12:50:02.111Z,102246.44
2022-12-03T12:55:07.262Z,102243.88
2022-12-03T13:00:20.602Z,102248.63
2022-12-03T13:05:23.325Z,102246.81
2022-12-03T13:10:40.944Z,102238.13
2022-12-03T13:15:47.974Z,102242.47
2022-12-03T13:20:50.951Z,102239.28
2022-12-03T13:26:09.259Z,102240.81
2022-12-03T13:31:21.760Z,102239.94
2022-12-03T13:36:29.856Z,102258.75
2022-12-03T13:41:31.725Z,102248.50
2022-12-03T13:46:33.662Z,102252.59
2022-12-03T13:51:35.929Z,102254.38
2022-12-03T13:56:37.877Z,102248.75
2022-12-03T14:01:39.891Z,102258.75
2022-12-03T14:06:41.979Z,102249.50
2022-12-03T14:11:44.255Z,102248.22
2022-12-03T14:16:46.164Z,102252.09
2022-12-03T14:21:48.245Z,102260.00
2022-12-03T14:26:50.156Z,102262.59
2022-12-03T14:31:52.227Z,102260.78
2022-12-03T14:36:54.538Z,102260.53
2022-12-03T14:41:56.576Z,102270.13
2022-12-03T14:46:58.472Z,102259.88
2022-12-03T14:52:00.232Z,102261.78
2022-12-03T14:57:02.264Z,102269.34
2022-12-03T15:02:05.527Z,102257.69
2022-12-03T15:07:08.497Z,102266.69
2022-12-03T15:12:10.412Z,102260.50
2022-12-03T15:17:12.689Z,102273.31
2022-12-03T15:22:14.587Z,102263.06
2022-12-03T15:27:16.476Z,102269.75
2022-12-03T15:32:18.296Z,102269.75
2022-12-03T15:37:20.602Z,102258.88
2022-12-03T15:42:22.475Z,102261.25
2022-12-03T15:47:24.499Z,102263.03
2022-12-03T15:52:26.392Z,102258.66
2022-12-03T15:57:28.258Z,102268.50
2022-12-03T16:02:30.093Z,102266.06
2022-12-03T16:07:32.556Z,102267.00
2022-12-03T16:12:34.477Z,102272.91
2022-12-03T16:17:36.362Z,102273.03
2022-12-03T16:22:38.274Z,102281.69
2022-12-03T16:27:40.209Z,102274.22
2022-12-03T16:32:42.108Z,102276.72
2022-12-03T16:37:43.957Z,102284.53
2022-12-03T16:42:45.798Z,102273.47
2022-12-03T16:47:47.733Z,102276.94
2022-12-03T16:52:49.739Z,102274.56
2022-12-03T16:57:51.603Z,102278.84
2022-12-03T17:02:53.810Z,102283.50
2022-12-03T17:07:55.722Z,102294.34
2022-12-03T17:13:12.964Z,102302.31
2022-12-03T17:18:14.725Z,102294.09
2022-12-03T17:23:16.566Z,102301.50
2022-12-03T17:28:18.378Z,102295.31
2022-12-03T17:33:20.174Z,102309.31
2022-12-03T17:38:22.178Z,102318.84
2022-12-03T17:43:24.155Z,102320.13
2022-12-03T17:48:29.134Z,102307.34
2022-12-03T17:53:31.100Z,102312.84
2022-12-03T17:58:34.693Z,102300.44
2022-12-03T18:03:37.144Z,102315.91
2022-12-03T18:08:39.433Z,102307.63
2022-12-03T18:13:42.383Z,102305.88
2022-12-03T18:18:44.223Z,102306.34
2022-12-03T18:23:46.216Z,102310.31
2022-12-03T18:28:48.012Z,102320.44
2022-12-03T18:33:51.158Z,102306.59
2022-12-03T18:38:53.842Z,102320.19
2022-12-03T18:43:57.244Z,102319.25
2022-12-03T18:49:02.683Z,102325.56
2022-12-03T18:54:05.038Z,102321.22
2022-12-03T18:59:07.367Z,102332.84
2022-12-03T19:04:10.031Z,102334.41
2022-12-03T19:09:11.857Z,102337.31
2022-12-03T19:14:13.648Z,102343.06
2022-12-03T19:19:15.584Z,102342.28
2022-12-03T19:24:25.565Z,102351.13
2022-12-03T19:29:27.764Z,102343.53
2022-12-03T19:34:29.503Z,102342.28
2022-12-03T19:39:31.394Z,102341.81
2022-12-03T19:44:33.480Z,102348.53
2022-12-03T19:49:35.567Z,102355.97
2022-12-03T19:54:37.405Z,102347.53
2022-12-03T19:59:39.268Z,102341.88
2022-12-03T20:04:41.146Z,102349.06
2022-12-03T20:09:44.189Z,102337.94
2022-12-03T20:14:46.036Z,102333.97
2022-12-03T20:19:48.025Z,102341.91
2022-12-03T20:24:49.856Z,102344.69
2022-12-03T20:29:51.865Z,102342.50
2022-12-03T20:34:53.930Z,102343.53
2022-12-03T20:39:56.159Z,102346.34
2022-12-03T20:44:58.018Z,102343.53
2022-12-03T20:49:59.936Z,102339.16
2022-12-03T20:55:01.840Z,102344.31
2022-12-03T21:00:04.169Z,102335.34
2022-12-03T21:05:06.703Z,102333.84
2022-12-03T21:10:08.619Z,102337.28
2022-12-03T21:15:10.677Z,102332.28
2022-12-03T21:20:16.603Z,102326.16
2022-12-03T21:25:21.279Z,102335.88
2022-12-03T21:30:23.407Z,102333.84
2022-12-03T21:35:25.566Z,102337.16
2022-12-03T21:40:27.447Z,102341.53
2022-12-03T21:45:29.304Z,102336.66
2022-12-03T21:50:31.161Z,102338.94
2022-12-03T21:55:33.076Z,102334.72
2022-12-03T22:00:35.149Z,102331.50
2022-12-03T22:05:39.739Z,102333.16
2022-12-03T22:10:41.595Z,102334.59
2022-12-03T22:15:43.579Z,102332.66
2022-12-03T22:20:45.421Z,102330.50
2022-12-03T22:25:47.277Z,102333.69
2022-12-03T22:30:49.191Z,102323.72
2022-12-03T22:35:58.178Z,102335.34
2022-12-03T22:41:00.214Z,102325.34
2022-12-03T22:46:02.099Z,102327.41
2022-12-03T22:51:04.317Z,102322.78
2022-12-03T22:56:06.596Z,102330.72
2022-12-03T23:01:08.611Z,102326.59
2022-12-03T23:06:11.256Z,102331.47
2022-12-03T23:11:13.137Z,102324.78
2022-12-03T23:16:23.374Z,102324.41
2022-12-03T23:21:29.890Z,102326.84
2022-12-03T23:26:34.848Z,102333.53
2022-12-03T23:31:36.754Z,102337.88
2022-12-03T23:36:38.630Z,102343.78
2022-12-03T23:41:40.479Z,102340.69
2022-12-03T23:46:42.425Z,102347.63
2022-12-03T23:51:44.477Z,102352.78
2022-12-03T23:56:46.291Z,102349.19
